sensor_id;sensor_type;location;lat;lon;timestamp;pressure;altitude;pressure_sealevel;temperature;humidity
70916;BME280;58557;50.982;-3.222;2023-04-20T00:00:33;101604.45;;;6.73;56.99
70916;BME280;58557;50.982;-3.222;2023-04-20T00:02:57;101604.95;;;6.61;57.01
70916;BME280;58557;50.982;-3.222;2023-04-20T00:05:22;101605.05;;;6.56;57.60
70916;BME280;58557;50.982;-3.222;2023-04-20T00:07:48;101604.13;;;6.37;58.52
70916;BME280;58557;50.982;-3.222;2023-04-20T00:10:13;101601.99;;;6.27;59.50
70916;BME280;58557;50.982;-3.222;2023-04-20T00:12:39;101598.51;;;6.49;58.88
70916;BME280;58557;50.982;-3.222;2023-04-20T00:15:05;101598.41;;;6.38;59.39
70916;BME280;58557;50.982;-3.222;2023-04-20T00:17:29;101598.17;;;6.46;58.00
70916;BME280;58557;50.982;-3.222;2023-04-20T00:19:55;101595.99;;;6.17;59.28
70916;BME280;58557;50.982;-3.222;2023-04-20T00:22:20;101599.00;;;6.68;58.36
70916;BME280;58557;50.982;-3.222;2023-04-20T00:24:45;101596.16;;;6.15;58.85
70916;BME280;58557;50.982;-3.222;2023-04-20T00:27:11;101596.74;;;6.30;59.60
70916;BME280;58557;50.982;-3.222;2023-04-20T00:29:36;101597.58;;;5.71;61.27
70916;BME280;58557;50.982;-3.222;2023-04-20T00:32:01;101598.17;;;5.97;61.39
70916;BME280;58557;50.982;-3.222;2023-04-20T00:34:27;101599.97;;;6.22;60.68
70916;BME280;58557;50.982;-3.222;2023-04-20T00:36:52;101598.32;;;6.27;59.36
70916;BME280;58557;50.982;-3.222;2023-04-20T00:39:17;101595.43;;;6.29;60.32
70916;BME280;58557;50.982;-3.222;2023-04-20T00:41:42;101598.80;;;5.41;63.69
70916;BME280;58557;50.982;-3.222;2023-04-20T00:44:08;101599.23;;;4.86;64.63
70916;BME280;58557;50.982;-3.222;2023-04-20T00:46:33;101595.03;;;4.73;65.06
70916;BME280;58557;50.982;-3.222;2023-04-20T00:48:59;101597.71;;;5.26;64.41
70916;BME280;58557;50.982;-3.222;2023-04-20T00:51:24;101596.26;;;5.44;63.83
70916;BME280;58557;50.982;-3.222;2023-04-20T00:53:50;101595.26;;;5.29;64.05
70916;BME280;58557;50.982;-3.222;2023-04-20T00:56:15;101594.55;;;5.32;63.71
70916;BME280;58557;50.982;-3.222;2023-04-20T00:58:42;101589.70;;;4.98;64.77
70916;BME280;58557;50.982;-3.222;2023-04-20T01:01:06;101585.79;;;5.29;63.59
70916;BME280;58557;50.982;-3.222;2023-04-20T01:03:32;101587.45;;;5.01;64.11
70916;BME280;58557;50.982;-3.222;2023-04-20T01:05:56;101589.17;;;5.22;63.56
70916;BME280;58557;50.982;-3.222;2023-04-20T01:08:25;101582.55;;;5.19;63.33
70916;BME280;58557;50.982;-3.222;2023-04-20T01:10:47;101575.76;;;5.94;60.79
70916;BME280;58557;50.982;-3.222;2023-04-20T01:13:13;101576.04;;;5.65;60.78
70916;BME280;58557;50.982;-3.222;2023-04-20T01:15:38;101572.32;;;5.37;61.45
70916;BME280;58557;50.982;-3.222;2023-04-20T01:18:04;101571.66;;;5.54;60.38
70916;BME280;58557;50.982;-3.222;2023-04-20T01:20:29;101571.85;;;5.80;59.49
70916;BME280;58557;50.982;-3.222;2023-04-20T01:22:56;101575.17;;;5.86;58.07
70916;BME280;58557;50.982;-3.222;2023-04-20T01:25:21;101572.09;;;5.70;58.12
70916;BME280;58557;50.982;-3.222;2023-04-20T01:27:46;101570.62;;;6.11;57.80
70916;BME280;58557;50.982;-3.222;2023-04-20T01:30:12;101570.00;;;6.06;57.40
70916;BME280;58557;50.982;-3.222;2023-04-20T01:32:37;101565.65;;;5.65;59.15
70916;BME280;58557;50.982;-3.222;2023-04-20T01:35:02;101570.18;;;5.89;58.09
70916;BME280;58557;50.982;-3.222;2023-04-20T01:37:28;101571.34;;;6.55;55.20
70916;BME280;58557;50.982;-3.222;2023-04-20T01:39:53;101569.89;;;6.99;53.74
70916;BME280;58557;50.982;-3.222;2023-04-20T01:42:19;101567.93;;;7.14;51.54
70916;BME280;58557;50.982;-3.222;2023-04-20T01:44:44;101568.45;;;7.43;51.28
70916;BME280;58557;50.982;-3.222;2023-04-20T01:47:10;101562.64;;;7.64;50.20
70916;BME280;58557;50.982;-3.222;2023-04-20T01:49:35;101562.09;;;7.64;49.83
70916;BME280;58557;50.982;-3.222;2023-04-20T01:52:00;101561.38;;;7.65;48.77
70916;BME280;58557;50.982;-3.222;2023-04-20T01:54:25;101563.92;;;7.92;47.91
70916;BME280;58557;50.982;-3.222;2023-04-20T01:56:50;101562.62;;;8.25;47.57
70916;BME280;58557;50.982;-3.222;2023-04-20T01:59:16;101561.10;;;7.69;49.62
70916;BME280;58557;50.982;-3.222;2023-04-20T02:01:41;101560.77;;;7.81;49.27
70916;BME280;58557;50.982;-3.222;2023-04-20T02:04:06;101562.84;;;7.11;51.03
70916;BME280;58557;50.982;-3.222;2023-04-20T02:06:32;101562.60;;;6.60;50.70
70916;BME280;58557;50.982;-3.222;2023-04-20T02:09:02;101563.02;;;7.68;49.23
70916;BME280;58557;50.982;-3.222;2023-04-20T02:11:22;101563.82;;;7.74;49.77
70916;BME280;58557;50.982;-3.222;2023-04-20T02:13:47;101565.97;;;7.53;49.40
70916;BME280;58557;50.982;-3.222;2023-04-20T02:16:13;101565.48;;;6.88;51.03
70916;BME280;58557;50.982;-3.222;2023-04-20T02:18:38;101564.59;;;6.81;51.19
70916;BME280;58557;50.982;-3.222;2023-04-20T02:21:05;101563.39;;;8.07;48.70
70916;BME280;58557;50.982;-3.222;2023-04-20T02:23:29;101562.48;;;8.34;47.09
70916;BME280;58557;50.982;-3.222;2023-04-20T02:25:54;101562.72;;;8.30;46.19
70916;BME280;58557;50.982;-3.222;2023-04-20T02:28:20;101566.22;;;9.00;44.72
70916;BME280;58557;50.982;-3.222;2023-04-20T02:30:45;101566.57;;;9.44;43.41
70916;BME280;58557;50.982;-3.222;2023-04-20T02:33:10;101568.46;;;8.56;43.71
70916;BME280;58557;50.982;-3.222;2023-04-20T02:35:35;101566.44;;;8.82;44.31
70916;BME280;58557;50.982;-3.222;2023-04-20T02:38:01;101563.44;;;9.43;42.34
70916;BME280;58557;50.982;-3.222;2023-04-20T02:40:26;101560.86;;;9.30;42.68
70916;BME280;58557;50.982;-3.222;2023-04-20T02:42:51;101563.97;;;10.20;40.92
70916;BME280;58557;50.982;-3.222;2023-04-20T02:45:17;101565.43;;;10.65;40.47
70916;BME280;58557;50.982;-3.222;2023-04-20T02:47:42;101565.64;;;10.74;40.14
70916;BME280;58557;50.982;-3.222;2023-04-20T02:50:08;101563.98;;;9.53;40.88
70916;BME280;58557;50.982;-3.222;2023-04-20T02:52:33;101563.86;;;9.77;40.97
70916;BME280;58557;50.982;-3.222;2023-04-20T02:54:58;101562.16;;;9.80;40.78
70916;BME280;58557;50.982;-3.222;2023-04-20T02:57:24;101560.43;;;9.87;40.52
70916;BME280;58557;50.982;-3.222;2023-04-20T02:59:49;101562.08;;;10.28;39.72
70916;BME280;58557;50.982;-3.222;2023-04-20T03:02:14;101564.21;;;9.22;40.96
70916;BME280;58557;50.982;-3.222;2023-04-20T03:04:40;101561.96;;;9.54;41.55
70916;BME280;58557;50.982;-3.222;2023-04-20T03:07:05;101565.76;;;8.78;42.48
70916;BME280;58557;50.982;-3.222;2023-04-20T03:09:30;101559.20;;;9.62;42.20
70916;BME280;58557;50.982;-3.222;2023-04-20T03:11:55;101563.09;;;8.97;42.35
70916;BME280;58557;50.982;-3.222;2023-04-20T03:14:21;101559.25;;;9.67;41.13
70916;BME280;58557;50.982;-3.222;2023-04-20T03:16:47;101558.07;;;9.69;41.02
70916;BME280;58557;50.982;-3.222;2023-04-20T03:19:12;101558.46;;;9.49;41.26
70916;BME280;58557;50.982;-3.222;2023-04-20T03:21:37;101560.10;;;9.65;40.82
70916;BME280;58557;50.982;-3.222;2023-04-20T03:24:04;101557.79;;;9.57;40.61
70916;BME280;58557;50.982;-3.222;2023-04-20T03:26:28;101554.27;;;9.17;41.69
70916;BME280;58557;50.982;-3.222;2023-04-20T03:28:53;101560.04;;;9.06;42.32
70916;BME280;58557;50.982;-3.222;2023-04-20T03:31:19;101555.80;;;8.79;43.75
70916;BME280;58557;50.982;-3.222;2023-04-20T03:33:44;101550.25;;;7.76;45.52
70916;BME280;58557;50.982;-3.222;2023-04-20T03:36:10;101552.21;;;7.34;47.71
70916;BME280;58557;50.982;-3.222;2023-04-20T03:38:35;101554.02;;;7.18;48.16
70916;BME280;58557;50.982;-3.222;2023-04-20T03:41:00;101551.73;;;6.88;48.40
70916;BME280;58557;50.982;-3.222;2023-04-20T03:43:26;101553.50;;;7.01;48.70
70916;BME280;58557;50.982;-3.222;2023-04-20T03:45:51;101551.07;;;6.43;49.90
70916;BME280;58557;50.982;-3.222;2023-04-20T03:48:16;101549.72;;;6.52;50.15
70916;BME280;58557;50.982;-3.222;2023-04-20T03:50:41;101548.72;;;5.54;52.29
70916;BME280;58557;50.982;-3.222;2023-04-20T03:53:07;101548.41;;;6.06;52.61
70916;BME280;58557;50.982;-3.222;2023-04-20T03:55:32;101549.65;;;5.90;52.47
70916;BME280;58557;50.982;-3.222;2023-04-20T03:57:58;101547.53;;;5.78;52.96
70916;BME280;58557;50.982;-3.222;2023-04-20T04:00:23;101550.05;;;6.22;51.97
70916;BME280;58557;50.982;-3.222;2023-04-20T04:02:48;101549.36;;;5.66;54.47
70916;BME280;58557;50.982;-3.222;2023-04-20T04:05:14;101545.61;;;5.46;55.34
70916;BME280;58557;50.982;-3.222;2023-04-20T04:07:40;101548.02;;;5.75;54.69
70916;BME280;58557;50.982;-3.222;2023-04-20T04:10:06;101546.30;;;5.55;54.71
70916;BME280;58557;50.982;-3.222;2023-04-20T04:12:31;101546.00;;;5.35;54.07
70916;BME280;58557;50.982;-3.222;2023-04-20T04:14:56;101547.75;;;5.89;53.11
70916;BME280;58557;50.982;-3.222;2023-04-20T04:17:21;101547.30;;;6.26;52.34
70916;BME280;58557;50.982;-3.222;2023-04-20T04:19:47;101545.73;;;7.20;48.08
70916;BME280;58557;50.982;-3.222;2023-04-20T04:22:12;101543.07;;;7.32;46.63
70916;BME280;58557;50.982;-3.222;2023-04-20T04:24:37;101548.19;;;8.72;45.32
70916;BME280;58557;50.982;-3.222;2023-04-20T04:27:03;101545.56;;;8.89;44.55
70916;BME280;58557;50.982;-3.222;2023-04-20T04:29:28;101543.10;;;8.71;44.02
70916;BME280;58557;50.982;-3.222;2023-04-20T04:31:53;101545.65;;;9.09;43.71
70916;BME280;58557;50.982;-3.222;2023-04-20T04:34:19;101547.09;;;8.60;44.59
70916;BME280;58557;50.982;-3.222;2023-04-20T04:36:44;101544.35;;;8.56;43.89
70916;BME280;58557;50.982;-3.222;2023-04-20T04:39:10;101543.36;;;8.65;44.06
70916;BME280;58557;50.982;-3.222;2023-04-20T04:41:35;101543.45;;;9.30;42.80
70916;BME280;58557;50.982;-3.222;2023-04-20T04:44:01;101550.82;;;9.31;42.85
70916;BME280;58557;50.982;-3.222;2023-04-20T04:46:26;101552.89;;;9.39;43.24
70916;BME280;58557;50.982;-3.222;2023-04-20T04:48:52;101555.95;;;8.54;43.45
70916;BME280;58557;50.982;-3.222;2023-04-20T04:51:18;101555.19;;;7.69;44.51
70916;BME280;58557;50.982;-3.222;2023-04-20T04:53:42;101552.69;;;9.00;43.28
70916;BME280;58557;50.982;-3.222;2023-04-20T04:56:08;101556.72;;;8.69;43.11
70916;BME280;58557;50.982;-3.222;2023-04-20T04:58:34;101559.41;;;8.73;43.88
70916;BME280;58557;50.982;-3.222;2023-04-20T05:00:59;101564.07;;;8.64;43.36
70916;BME280;58557;50.982;-3.222;2023-04-20T05:03:24;101562.82;;;8.89;41.94
70916;BME280;58557;50.982;-3.222;2023-04-20T05:05:50;101557.21;;;9.68;41.66
70916;BME280;58557;50.982;-3.222;2023-04-20T05:08:15;101562.71;;;8.70;42.92
70916;BME280;58557;50.982;-3.222;2023-04-20T05:10:40;101556.82;;;7.81;43.49
70916;BME280;58557;50.982;-3.222;2023-04-20T05:13:06;101554.90;;;8.80;43.18
70916;BME280;58557;50.982;-3.222;2023-04-20T05:15:31;101554.16;;;8.43;43.89
70916;BME280;58557;50.982;-3.222;2023-04-20T05:17:57;101551.84;;;7.73;45.72
70916;BME280;58557;50.982;-3.222;2023-04-20T05:20:22;101554.48;;;7.09;47.13
70916;BME280;58557;50.982;-3.222;2023-04-20T05:22:48;101556.72;;;7.62;47.45
70916;BME280;58557;50.982;-3.222;2023-04-20T05:25:12;101553.42;;;7.17;48.15
70916;BME280;58557;50.982;-3.222;2023-04-20T05:27:38;101558.74;;;7.04;48.60
70916;BME280;58557;50.982;-3.222;2023-04-20T05:30:05;101556.97;;;7.18;47.30
70916;BME280;58557;50.982;-3.222;2023-04-20T05:32:29;101559.45;;;7.40;47.15
70916;BME280;58557;50.982;-3.222;2023-04-20T05:34:55;101561.38;;;8.27;45.85
70916;BME280;58557;50.982;-3.222;2023-04-20T05:37:20;101558.95;;;7.45;45.88
70916;BME280;58557;50.982;-3.222;2023-04-20T05:39:46;101560.69;;;8.05;45.31
70916;BME280;58557;50.982;-3.222;2023-04-20T05:42:11;101555.49;;;7.88;46.45
70916;BME280;58557;50.982;-3.222;2023-04-20T05:44:36;101554.80;;;6.70;50.30
70916;BME280;58557;50.982;-3.222;2023-04-20T05:47:02;101555.07;;;6.93;50.79
70916;BME280;58557;50.982;-3.222;2023-04-20T05:49:27;101553.58;;;6.71;50.88
70916;BME280;58557;50.982;-3.222;2023-04-20T05:51:52;101554.39;;;6.48;52.46
70916;BME280;58557;50.982;-3.222;2023-04-20T05:54:18;101562.48;;;5.37;57.36
70916;BME280;58557;50.982;-3.222;2023-04-20T05:56:43;101562.72;;;5.84;57.25
70916;BME280;58557;50.982;-3.222;2023-04-20T05:59:09;101563.48;;;5.74;57.07
70916;BME280;58557;50.982;-3.222;2023-04-20T06:01:34;101564.88;;;6.47;54.51
70916;BME280;58557;50.982;-3.222;2023-04-20T06:04:00;101567.59;;;6.68;54.57
70916;BME280;58557;50.982;-3.222;2023-04-20T06:06:25;101567.66;;;6.88;54.08
70916;BME280;58557;50.982;-3.222;2023-04-20T06:08:51;101563.65;;;6.41;55.26
70916;BME280;58557;50.982;-3.222;2023-04-20T06:11:16;101553.08;;;6.93;55.64
70916;BME280;58557;50.982;-3.222;2023-04-20T06:13:42;101551.98;;;7.76;53.42
70916;BME280;58557;50.982;-3.222;2023-04-20T06:16:07;101554.84;;;6.83;56.02
70916;BME280;58557;50.982;-3.222;2023-04-20T06:18:33;101551.28;;;6.20;59.56
70916;BME280;58557;50.982;-3.222;2023-04-20T06:20:58;101551.82;;;5.61;62.47
70916;BME280;58557;50.982;-3.222;2023-04-20T06:23:23;101558.59;;;5.17;64.16
70916;BME280;58557;50.982;-3.222;2023-04-20T06:25:49;101556.53;;;5.18;65.65
70916;BME280;58557;50.982;-3.222;2023-04-20T06:28:15;101557.58;;;5.64;64.13
70916;BME280;58557;50.982;-3.222;2023-04-20T06:30:40;101558.85;;;5.55;64.74
70916;BME280;58557;50.982;-3.222;2023-04-20T06:33:06;101562.27;;;5.61;63.64
70916;BME280;58557;50.982;-3.222;2023-04-20T06:35:31;101560.26;;;6.01;62.34
70916;BME280;58557;50.982;-3.222;2023-04-20T06:37:57;101564.67;;;6.35;62.97
70916;BME280;58557;50.982;-3.222;2023-04-20T06:40:22;101564.38;;;6.84;59.77
70916;BME280;58557;50.982;-3.222;2023-04-20T06:42:47;101565.98;;;6.38;61.26
70916;BME280;58557;50.982;-3.222;2023-04-20T06:45:13;101565.62;;;6.45;60.03
70916;BME280;58557;50.982;-3.222;2023-04-20T06:47:38;101567.62;;;6.07;62.07
70916;BME280;58557;50.982;-3.222;2023-04-20T06:50:05;101564.25;;;7.20;59.21
70916;BME280;58557;50.982;-3.222;2023-04-20T06:52:28;101562.51;;;6.41;59.90
70916;BME280;58557;50.982;-3.222;2023-04-20T06:54:54;101563.54;;;6.54;61.71
70916;BME280;58557;50.982;-3.222;2023-04-20T06:57:19;101557.87;;;6.68;59.91
70916;BME280;58557;50.982;-3.222;2023-04-20T06:59:44;101557.74;;;6.19;61.06
70916;BME280;58557;50.982;-3.222;2023-04-20T07:02:09;101556.25;;;6.89;59.77
70916;BME280;58557;50.982;-3.222;2023-04-20T07:04:34;101556.03;;;7.30;58.59
70916;BME280;58557;50.982;-3.222;2023-04-20T07:06:59;101556.64;;;7.69;57.08
70916;BME280;58557;50.982;-3.222;2023-04-20T07:09:25;101556.61;;;7.89;56.32
70916;BME280;58557;50.982;-3.222;2023-04-20T07:11:50;101556.77;;;7.49;56.06
70916;BME280;58557;50.982;-3.222;2023-04-20T07:14:16;101556.10;;;8.40;54.38
70916;BME280;58557;50.982;-3.222;2023-04-20T07:16:41;101554.55;;;7.71;55.33
70916;BME280;58557;50.982;-3.222;2023-04-20T07:19:07;101556.53;;;8.54;54.49
70916;BME280;58557;50.982;-3.222;2023-04-20T07:21:31;101554.37;;;7.80;56.91
70916;BME280;58557;50.982;-3.222;2023-04-20T07:23:57;101555.70;;;7.84;56.16
70916;BME280;58557;50.982;-3.222;2023-04-20T07:26:23;101553.61;;;7.75;56.99
70916;BME280;58557;50.982;-3.222;2023-04-20T07:28:48;101556.79;;;7.03;58.50
70916;BME280;58557;50.982;-3.222;2023-04-20T07:31:13;101554.17;;;7.83;59.23
70916;BME280;58557;50.982;-3.222;2023-04-20T07:33:38;101554.68;;;8.37;56.88
70916;BME280;58557;50.982;-3.222;2023-04-20T07:36:04;101554.76;;;9.38;54.11
70916;BME280;58557;50.982;-3.222;2023-04-20T07:38:30;101554.22;;;8.37;55.66
70916;BME280;58557;50.982;-3.222;2023-04-20T07:40:55;101549.99;;;8.23;57.43
70916;BME280;58557;50.982;-3.222;2023-04-20T07:43:21;101545.39;;;8.48;56.45
70916;BME280;58557;50.982;-3.222;2023-04-20T07:45:47;101546.63;;;9.33;54.26
70916;BME280;58557;50.982;-3.222;2023-04-20T07:48:13;101547.18;;;8.56;56.08
70916;BME280;58557;50.982;-3.222;2023-04-20T07:50:38;101537.80;;;9.89;53.78
70916;BME280;58557;50.982;-3.222;2023-04-20T07:53:03;101538.38;;;9.56;53.40
70916;BME280;58557;50.982;-3.222;2023-04-20T07:55:29;101538.62;;;10.51;52.77
70916;BME280;58557;50.982;-3.222;2023-04-20T07:57:54;101535.62;;;10.57;50.64
70916;BME280;58557;50.982;-3.222;2023-04-20T08:00:20;101535.54;;;9.63;51.62
70916;BME280;58557;50.982;-3.222;2023-04-20T08:02:45;101536.02;;;10.21;52.96
70916;BME280;58557;50.982;-3.222;2023-04-20T08:05:10;101534.55;;;10.67;50.75
70916;BME280;58557;50.982;-3.222;2023-04-20T08:07:36;101533.30;;;10.94;48.79
70916;BME280;58557;50.982;-3.222;2023-04-20T08:10:02;101528.24;;;10.17;51.03
70916;BME280;58557;50.982;-3.222;2023-04-20T08:12:27;101522.46;;;11.03;48.89
70916;BME280;58557;50.982;-3.222;2023-04-20T08:14:52;101525.43;;;11.12;48.99
70916;BME280;58557;50.982;-3.222;2023-04-20T08:17:18;101524.54;;;11.06;47.54
70916;BME280;58557;50.982;-3.222;2023-04-20T08:19:43;101522.13;;;11.07;48.42
70916;BME280;58557;50.982;-3.222;2023-04-20T08:22:09;101525.08;;;10.75;49.73
70916;BME280;58557;50.982;-3.222;2023-04-20T08:24:35;101522.88;;;11.43;48.11
70916;BME280;58557;50.982;-3.222;2023-04-20T08:27:00;101527.35;;;11.65;48.48
70916;BME280;58557;50.982;-3.222;2023-04-20T08:29:26;101524.00;;;12.15;46.29
70916;BME280;58557;50.982;-3.222;2023-04-20T08:31:52;101528.47;;;12.93;45.27
70916;BME280;58557;50.982;-3.222;2023-04-20T08:34:17;101525.35;;;10.96;49.51
70916;BME280;58557;50.982;-3.222;2023-04-20T08:36:43;101523.70;;;10.53;50.01
70916;BME280;58557;50.982;-3.222;2023-04-20T08:39:10;101521.69;;;9.76;52.37
70916;BME280;58557;50.982;-3.222;2023-04-20T08:41:34;101522.32;;;10.27;50.88
70916;BME280;58557;50.982;-3.222;2023-04-20T08:43:58;101515.90;;;10.22;50.62
70916;BME280;58557;50.982;-3.222;2023-04-20T08:46:25;101517.15;;;10.45;49.39
70916;BME280;58557;50.982;-3.222;2023-04-20T08:48:49;101515.94;;;10.64;49.97
70916;BME280;58557;50.982;-3.222;2023-04-20T08:51:15;101513.30;;;10.71;50.82
70916;BME280;58557;50.982;-3.222;2023-04-20T08:53:41;101512.03;;;10.44;49.90
70916;BME280;58557;50.982;-3.222;2023-04-20T08:56:06;101514.00;;;10.68;50.09
70916;BME280;58557;50.982;-3.222;2023-04-20T08:58:32;101505.77;;;11.53;47.16
70916;BME280;58557;50.982;-3.222;2023-04-20T09:00:57;101506.84;;;11.12;47.94
70916;BME280;58557;50.982;-3.222;2023-04-20T09:03:31;101509.73;;;12.12;46.22
70916;BME280;58557;50.982;-3.222;2023-04-20T09:05:49;101504.42;;;11.95;45.62
70916;BME280;58557;50.982;-3.222;2023-04-20T09:08:13;101505.17;;;10.94;47.39
70916;BME280;58557;50.982;-3.222;2023-04-20T09:10:40;101506.10;;;10.07;49.24
70916;BME280;58557;50.982;-3.222;2023-04-20T09:13:04;101500.03;;;10.14;50.63
70916;BME280;58557;50.982;-3.222;2023-04-20T09:15:30;101495.82;;;10.73;47.96
70916;BME280;58557;50.982;-3.222;2023-04-20T09:17:55;101503.28;;;10.73;47.92
70916;BME280;58557;50.982;-3.222;2023-04-20T09:20:28;101498.53;;;10.72;47.73
70916;BME280;58557;50.982;-3.222;2023-04-20T09:22:45;101490.13;;;11.29;46.89
70916;BME280;58557;50.982;-3.222;2023-04-20T09:25:12;101488.15;;;11.92;44.01
70916;BME280;58557;50.982;-3.222;2023-04-20T09:27:36;101482.28;;;11.61;43.67
70916;BME280;58557;50.982;-3.222;2023-04-20T09:30:02;101480.84;;;12.81;42.54
70916;BME280;58557;50.982;-3.222;2023-04-20T09:32:28;101482.50;;;13.31;42.29
70916;BME280;58557;50.982;-3.222;2023-04-20T09:34:53;101476.85;;;13.12;42.41
70916;BME280;58557;50.982;-3.222;2023-04-20T09:37:19;101467.21;;;11.76;43.46
70916;BME280;58557;50.982;-3.222;2023-04-20T09:39:44;101468.20;;;11.56;46.29
70916;BME280;58557;50.982;-3.222;2023-04-20T09:42:11;101472.19;;;11.26;46.40
70916;BME280;58557;50.982;-3.222;2023-04-20T09:44:37;101469.57;;;11.15;46.81
70916;BME280;58557;50.982;-3.222;2023-04-20T09:47:00;101472.07;;;11.29;45.26
70916;BME280;58557;50.982;-3.222;2023-04-20T09:49:26;101458.43;;;11.75;42.71
70916;BME280;58557;50.982;-3.222;2023-04-20T09:51:51;101462.38;;;11.44;44.09
70916;BME280;58557;50.982;-3.222;2023-04-20T09:54:16;101459.62;;;11.92;44.43
70916;BME280;58557;50.982;-3.222;2023-04-20T09:56:41;101456.59;;;11.10;45.26
70916;BME280;58557;50.982;-3.222;2023-04-20T09:59:07;101455.21;;;10.91;45.49
70916;BME280;58557;50.982;-3.222;2023-04-20T10:01:33;101450.16;;;12.25;44.12
70916;BME280;58557;50.982;-3.222;2023-04-20T10:03:59;101455.38;;;12.96;40.42
70916;BME280;58557;50.982;-3.222;2023-04-20T10:06:25;101452.38;;;12.41;39.74
70916;BME280;58557;50.982;-3.222;2023-04-20T10:08:49;101455.08;;;11.90;42.41
70916;BME280;58557;50.982;-3.222;2023-04-20T10:11:24;101457.30;;;11.87;38.48
70916;BME280;58557;50.982;-3.222;2023-04-20T10:13:40;101450.01;;;11.87;39.21
70916;BME280;58557;50.982;-3.222;2023-04-20T10:18:31;101449.37;;;11.36;40.31
70916;BME280;58557;50.982;-3.222;2023-04-20T10:21:03;101445.42;;;11.32;40.70
70916;BME280;58557;50.982;-3.222;2023-04-20T10:23:22;101439.43;;;11.37;41.00
70916;BME280;58557;50.982;-3.222;2023-04-20T10:25:55;101440.82;;;11.01;42.77
70916;BME280;58557;50.982;-3.222;2023-04-20T10:28:13;101444.55;;;11.92;41.81
70916;BME280;58557;50.982;-3.222;2023-04-20T10:33:04;101440.82;;;11.70;40.76
70916;BME280;58557;50.982;-3.222;2023-04-20T10:37:55;101439.92;;;13.35;38.93
70916;BME280;58557;50.982;-3.222;2023-04-20T10:40:24;101445.76;;;12.87;39.43
70916;BME280;58557;50.982;-3.222;2023-04-20T10:42:46;101443.29;;;11.40;42.01
70916;BME280;58557;50.982;-3.222;2023-04-20T10:45:12;101448.13;;;12.22;42.00
70916;BME280;58557;50.982;-3.222;2023-04-20T10:47:37;101446.59;;;12.34;40.46
70916;BME280;58557;50.982;-3.222;2023-04-20T10:50:07;101440.80;;;11.94;41.33
70916;BME280;58557;50.982;-3.222;2023-04-20T10:52:32;101444.48;;;12.29;40.84
70916;BME280;58557;50.982;-3.222;2023-04-20T10:54:53;101443.07;;;11.59;41.55
70916;BME280;58557;50.982;-3.222;2023-04-20T10:57:18;101441.55;;;11.85;41.52
70916;BME280;58557;50.982;-3.222;2023-04-20T10:59:44;101436.26;;;11.32;40.98
70916;BME280;58557;50.982;-3.222;2023-04-20T11:02:09;101440.86;;;11.67;40.67
70916;BME280;58557;50.982;-3.222;2023-04-20T11:04:34;101446.11;;;11.80;38.93
70916;BME280;58557;50.982;-3.222;2023-04-20T11:07:04;101445.62;;;12.62;35.77
70916;BME280;58557;50.982;-3.222;2023-04-20T11:09:25;101440.81;;;12.70;36.52
70916;BME280;58557;50.982;-3.222;2023-04-20T11:11:58;101442.01;;;12.47;38.79
70916;BME280;58557;50.982;-3.222;2023-04-20T11:14:16;101427.36;;;13.57;36.44
70916;BME280;58557;50.982;-3.222;2023-04-20T11:16:50;101427.40;;;13.78;34.44
70916;BME280;58557;50.982;-3.222;2023-04-20T11:19:06;101416.97;;;14.47;31.90
70916;BME280;58557;50.982;-3.222;2023-04-20T11:21:36;101416.03;;;13.03;33.15
70916;BME280;58557;50.982;-3.222;2023-04-20T11:23:57;101417.53;;;12.99;34.78
70916;BME280;58557;50.982;-3.222;2023-04-20T11:26:33;101407.31;;;13.60;35.02
70916;BME280;58557;50.982;-3.222;2023-04-20T11:28:52;101407.94;;;14.32;34.43
70916;BME280;58557;50.982;-3.222;2023-04-20T11:31:15;101408.01;;;14.51;33.48
70916;BME280;58557;50.982;-3.222;2023-04-20T11:33:39;101410.19;;;13.75;33.31
70916;BME280;58557;50.982;-3.222;2023-04-20T11:36:04;101404.54;;;13.85;33.86
70916;BME280;58557;50.982;-3.222;2023-04-20T11:38:31;101398.82;;;14.26;34.21
70916;BME280;58557;50.982;-3.222;2023-04-20T11:40:55;101394.82;;;13.70;35.22
70916;BME280;58557;50.982;-3.222;2023-04-20T11:43:20;101388.37;;;12.82;36.39
70916;BME280;58557;50.982;-3.222;2023-04-20T11:45:46;101393.13;;;12.98;34.56
70916;BME280;58557;50.982;-3.222;2023-04-20T11:48:12;101389.59;;;13.12;34.52
70916;BME280;58557;50.982;-3.222;2023-04-20T11:50:37;101388.27;;;12.74;34.94
70916;BME280;58557;50.982;-3.222;2023-04-20T11:53:03;101391.12;;;12.94;36.08
70916;BME280;58557;50.982;-3.222;2023-04-20T11:55:28;101395.06;;;13.02;36.20
70916;BME280;58557;50.982;-3.222;2023-04-20T11:57:53;101387.63;;;12.99;37.97
70916;BME280;58557;50.982;-3.222;2023-04-20T12:00:20;101381.33;;;13.25;34.92
70916;BME280;58557;50.982;-3.222;2023-04-20T12:02:44;101375.03;;;14.33;33.66
70916;BME280;58557;50.982;-3.222;2023-04-20T12:05:09;101366.54;;;14.08;34.65
70916;BME280;58557;50.982;-3.222;2023-04-20T12:07:35;101379.33;;;15.02;34.10
70916;BME280;58557;50.982;-3.222;2023-04-20T12:10:00;101382.73;;;14.13;32.27
70916;BME280;58557;50.982;-3.222;2023-04-20T12:12:26;101383.66;;;14.62;31.65
70916;BME280;58557;50.982;-3.222;2023-04-20T12:14:51;101378.16;;;13.91;32.67
70916;BME280;58557;50.982;-3.222;2023-04-20T12:17:16;101384.33;;;14.07;33.90
70916;BME280;58557;50.982;-3.222;2023-04-20T12:19:41;101383.06;;;14.18;32.61
70916;BME280;58557;50.982;-3.222;2023-04-20T12:22:07;101386.87;;;15.11;31.53
70916;BME280;58557;50.982;-3.222;2023-04-20T12:24:32;101381.67;;;14.85;31.52
70916;BME280;58557;50.982;-3.222;2023-04-20T12:26:58;101382.71;;;14.05;31.88
70916;BME280;58557;50.982;-3.222;2023-04-20T12:29:23;101368.99;;;14.82;31.09
70916;BME280;58557;50.982;-3.222;2023-04-20T12:31:49;101369.23;;;14.88;31.67
70916;BME280;58557;50.982;-3.222;2023-04-20T12:34:15;101364.22;;;14.55;32.01
70916;BME280;58557;50.982;-3.222;2023-04-20T12:36:40;101363.19;;;14.66;32.18
70916;BME280;58557;50.982;-3.222;2023-04-20T12:39:06;101372.12;;;15.14;31.31
70916;BME280;58557;50.982;-3.222;2023-04-20T12:41:31;101360.68;;;14.05;31.94